sensor_id;sensor_type;location;lat;lon;timestamp;P1;durP1;ratioP1;P2;durP2;ratioP2
64712;SDS011;51140;45.340;5.980;2022-08-19T00:00:08;9.52;;;3.35;;
64712;SDS011;51140;45.340;5.980;2022-08-19T00:02:35;11.07;;;2.92;;
64712;SDS011;51140;45.340;5.980;2022-08-19T00:05:01;8.95;;;2.65;;
64712;SDS011;51140;45.340;5.980;2022-08-19T00:07:28;7.35;;;2.35;;
64712;SDS011;51140;45.340;5.980;2022-08-19T00:09:53;6.53;;;2.13;;
64712;SDS011;51140;45.340;5.980;2022-08-19T00:12:19;9.65;;;2.10;;
64712;SDS011;51140;45.340;5.980;2022-08-19T00:14:45;6.97;;;2.50;;
64712;SDS011;51140;45.340;5.980;2022-08-19T00:17:10;7.03;;;2.70;;
64712;SDS011;51140;45.340;5.980;2022-08-19T00:19:36;5.70;;;2.17;;
64712;SDS011;51140;45.340;5.980;2022-08-19T00:22:02;5.13;;;2.03;;
64712;SDS011;51140;45.340;5.980;2022-08-19T00:24:28;4.47;;;2.03;;
64712;SDS011;51140;45.340;5.980;2022-08-19T00:26:54;5.10;;;1.95;;
64712;SDS011;51140;45.340;5.980;2022-08-19T00:29:22;4.60;;;1.70;;
64712;SDS011;51140;45.340;5.980;2022-08-19T00:31:49;3.80;;;1.52;;
64712;SDS011;51140;45.340;5.980;2022-08-19T00:34:20;5.00;;;1.85;;
64712;SDS011;51140;45.340;5.980;2022-08-19T00:36:46;4.28;;;1.65;;
64712;SDS011;51140;45.340;5.980;2022-08-19T00:39:12;6.10;;;2.30;;
64712;SDS011;51140;45.340;5.980;2022-08-19T00:41:38;5.10;;;1.80;;
64712;SDS011;51140;45.340;5.980;2022-08-19T00:44:09;6.60;;;2.10;;
64712;SDS011;51140;45.340;5.980;2022-08-19T00:46:41;4.93;;;1.98;;
64712;SDS011;51140;45.340;5.980;2022-08-19T00:49:21;7.03;;;2.13;;
64712;SDS011;51140;45.340;5.980;2022-08-19T00:51:50;6.68;;;2.40;;
64712;SDS011;51140;45.340;5.980;2022-08-19T00:54:18;5.70;;;2.20;;
64712;SDS011;51140;45.340;5.980;2022-08-19T00:56:44;15.90;;;2.30;;
64712;SDS011;51140;45.340;5.980;2022-08-19T00:59:11;4.72;;;2.00;;
64712;SDS011;51140;45.340;5.980;2022-08-19T01:01:41;8.70;;;2.42;;
64712;SDS011;51140;45.340;5.980;2022-08-19T01:04:08;8.38;;;2.70;;
64712;SDS011;51140;45.340;5.980;2022-08-19T01:06:35;6.65;;;3.17;;
64712;SDS011;51140;45.340;5.980;2022-08-19T01:09:02;6.22;;;2.83;;
64712;SDS011;51140;45.340;5.980;2022-08-19T01:11:30;8.63;;;3.35;;
64712;SDS011;51140;45.340;5.980;2022-08-19T01:13:58;8.45;;;3.25;;
64712;SDS011;51140;45.340;5.980;2022-08-19T01:16:25;11.05;;;2.90;;
64712;SDS011;51140;45.340;5.980;2022-08-19T01:18:52;9.38;;;3.30;;
64712;SDS011;51140;45.340;5.980;2022-08-19T01:21:22;5.72;;;2.88;;
64712;SDS011;51140;45.340;5.980;2022-08-19T01:23:54;7.93;;;3.03;;
64712;SDS011;51140;45.340;5.980;2022-08-19T01:26:22;6.65;;;3.17;;
64712;SDS011;51140;45.340;5.980;2022-08-19T01:28:50;5.70;;;2.83;;
64712;SDS011;51140;45.340;5.980;2022-08-19T01:31:19;7.55;;;3.10;;
64712;SDS011;51140;45.340;5.980;2022-08-19T01:33:49;8.30;;;2.97;;
64712;SDS011;51140;45.340;5.980;2022-08-19T01:36:22;5.93;;;2.95;;
64712;SDS011;51140;45.340;5.980;2022-08-19T01:38:58;8.50;;;2.70;;
64712;SDS011;51140;45.340;5.980;2022-08-19T01:41:27;7.13;;;2.80;;
64712;SDS011;51140;45.340;5.980;2022-08-19T01:43:52;5.38;;;2.80;;
64712;SDS011;51140;45.340;5.980;2022-08-19T01:46:18;6.95;;;3.20;;
64712;SDS011;51140;45.340;5.980;2022-08-19T01:48:44;6.10;;;2.95;;
64712;SDS011;51140;45.340;5.980;2022-08-19T01:51:11;7.47;;;4.10;;
64712;SDS011;51140;45.340;5.980;2022-08-19T01:53:38;9.40;;;4.32;;
64712;SDS011;51140;45.340;5.980;2022-08-19T01:56:04;12.43;;;5.28;;
64712;SDS011;51140;45.340;5.980;2022-08-19T01:58:32;6.85;;;4.03;;
64712;SDS011;51140;45.340;5.980;2022-08-19T02:01:12;6.68;;;3.80;;
64712;SDS011;51140;45.340;5.980;2022-08-19T02:03:38;6.95;;;3.70;;
64712;SDS011;51140;45.340;5.980;2022-08-19T02:06:04;8.75;;;3.25;;
64712;SDS011;51140;45.340;5.980;2022-08-19T02:08:31;6.28;;;3.15;;
64712;SDS011;51140;45.340;5.980;2022-08-19T02:10:57;7.75;;;3.65;;
64712;SDS011;51140;45.340;5.980;2022-08-19T02:13:23;8.02;;;3.17;;
64712;SDS011;51140;45.340;5.980;2022-08-19T02:15:50;6.47;;;3.03;;
64712;SDS011;51140;45.340;5.980;2022-08-19T02:18:16;6.55;;;3.08;;
64712;SDS011;51140;45.340;5.980;2022-08-19T02:20:42;6.72;;;2.97;;
64712;SDS011;51140;45.340;5.980;2022-08-19T02:23:08;7.97;;;2.97;;
64712;SDS011;51140;45.340;5.980;2022-08-19T02:25:35;8.07;;;3.10;;
64712;SDS011;51140;45.340;5.980;2022-08-19T02:28:00;6.43;;;2.80;;
64712;SDS011;51140;45.340;5.980;2022-08-19T02:30:27;6.45;;;2.70;;
64712;SDS011;51140;45.340;5.980;2022-08-19T02:32:53;7.90;;;3.65;;
64712;SDS011;51140;45.340;5.980;2022-08-19T02:35:18;5.80;;;3.28;;
64712;SDS011;51140;45.340;5.980;2022-08-19T02:37:44;9.27;;;3.10;;
64712;SDS011;51140;45.340;5.980;2022-08-19T02:40:29;8.38;;;3.58;;
64712;SDS011;51140;45.340;5.980;2022-08-19T02:42:58;6.18;;;3.17;;
64712;SDS011;51140;45.340;5.980;2022-08-19T02:45:24;6.80;;;3.30;;
64712;SDS011;51140;45.340;5.980;2022-08-19T02:47:49;5.47;;;2.67;;
64712;SDS011;51140;45.340;5.980;2022-08-19T02:50:15;5.88;;;3.15;;
64712;SDS011;51140;45.340;5.980;2022-08-19T02:52:40;6.72;;;3.25;;
64712;SDS011;51140;45.340;5.980;2022-08-19T02:55:06;9.32;;;3.08;;
64712;SDS011;51140;45.340;5.980;2022-08-19T02:57:31;8.15;;;3.10;;
64712;SDS011;51140;45.340;5.980;2022-08-19T02:59:57;8.15;;;3.60;;
64712;SDS011;51140;45.340;5.980;2022-08-19T03:02:23;8.05;;;3.25;;
64712;SDS011;51140;45.340;5.980;2022-08-19T03:04:49;6.72;;;3.40;;
64712;SDS011;51140;45.340;5.980;2022-08-19T03:07:15;7.43;;;2.70;;
64712;SDS011;51140;45.340;5.980;2022-08-19T03:09:42;8.05;;;2.83;;
64712;SDS011;51140;45.340;5.980;2022-08-19T03:12:08;6.97;;;2.78;;
64712;SDS011;51140;45.340;5.980;2022-08-19T03:14:34;7.30;;;2.75;;
64712;SDS011;51140;45.340;5.980;2022-08-19T03:17:00;8.40;;;2.95;;
64712;SDS011;51140;45.340;5.980;2022-08-19T03:19:26;7.63;;;3.10;;
64712;SDS011;51140;45.340;5.980;2022-08-19T03:21:52;7.38;;;2.80;;
64712;SDS011;51140;45.340;5.980;2022-08-19T03:24:18;5.57;;;2.40;;
64712;SDS011;51140;45.340;5.980;2022-08-19T03:26:46;5.60;;;2.88;;
64712;SDS011;51140;45.340;5.980;2022-08-19T03:29:14;5.53;;;2.47;;
64712;SDS011;51140;45.340;5.980;2022-08-19T03:31:40;6.00;;;2.67;;
64712;SDS011;51140;45.340;5.980;2022-08-19T03:34:08;5.40;;;2.42;;
64712;SDS011;51140;45.340;5.980;2022-08-19T03:36:35;5.95;;;2.78;;
64712;SDS011;51140;45.340;5.980;2022-08-19T03:39:00;9.18;;;3.47;;
64712;SDS011;51140;45.340;5.980;2022-08-19T03:41:27;5.80;;;3.00;;
64712;SDS011;51140;45.340;5.980;2022-08-19T03:43:56;11.98;;;3.53;;
64712;SDS011;51140;45.340;5.980;2022-08-19T03:46:22;9.02;;;4.32;;
64712;SDS011;51140;45.340;5.980;2022-08-19T03:48:51;7.28;;;3.55;;
64712;SDS011;51140;45.340;5.980;2022-08-19T03:51:26;6.68;;;3.78;;
64712;SDS011;51140;45.340;5.980;2022-08-19T03:53:56;6.13;;;3.40;;
64712;SDS011;51140;45.340;5.980;2022-08-19T03:56:24;7.03;;;3.60;;
64712;SDS011;51140;45.340;5.980;2022-08-19T03:58:51;10.23;;;3.38;;
64712;SDS011;51140;45.340;5.980;2022-08-19T04:01:19;5.55;;;2.78;;
64712;SDS011;51140;45.340;5.980;2022-08-19T04:03:47;6.05;;;3.28;;
64712;SDS011;51140;45.340;5.980;2022-08-19T04:06:26;7.85;;;2.90;;
64712;SDS011;51140;45.340;5.980;2022-08-19T04:08:53;6.07;;;2.97;;
64712;SDS011;51140;45.340;5.980;2022-08-19T04:11:24;7.82;;;3.40;;
64712;SDS011;51140;45.340;5.980;2022-08-19T04:13:54;6.78;;;3.95;;
64712;SDS011;51140;45.340;5.980;2022-08-19T04:16:22;7.50;;;4.47;;
64712;SDS011;51140;45.340;5.980;2022-08-19T04:18:49;7.82;;;4.25;;
64712;SDS011;51140;45.340;5.980;2022-08-19T04:21:19;7.60;;;4.40;;
64712;SDS011;51140;45.340;5.980;2022-08-19T04:23:46;7.30;;;3.90;;
64712;SDS011;51140;45.340;5.980;2022-08-19T04:26:19;10.38;;;3.90;;
64712;SDS011;51140;45.340;5.980;2022-08-19T04:28:48;7.03;;;3.38;;
64712;SDS011;51140;45.340;5.980;2022-08-19T04:31:14;7.57;;;3.55;;
64712;SDS011;51140;45.340;5.980;2022-08-19T04:33:42;6.95;;;3.50;;
64712;SDS011;51140;45.340;5.980;2022-08-19T04:36:07;7.10;;;3.75;;
64712;SDS011;51140;45.340;5.980;2022-08-19T04:38:34;6.75;;;3.67;;
64712;SDS011;51140;45.340;5.980;2022-08-19T04:41:01;6.00;;;3.53;;
64712;SDS011;51140;45.340;5.980;2022-08-19T04:43:48;8.27;;;3.58;;
64712;SDS011;51140;45.340;5.980;2022-08-19T04:46:15;7.72;;;3.42;;
64712;SDS011;51140;45.340;5.980;2022-08-19T04:48:42;7.53;;;3.33;;
64712;SDS011;51140;45.340;5.980;2022-08-19T04:51:09;6.03;;;3.08;;
64712;SDS011;51140;45.340;5.980;2022-08-19T04:53:39;5.72;;;3.20;;
64712;SDS011;51140;45.340;5.980;2022-08-19T04:56:11;5.85;;;3.08;;
64712;SDS011;51140;45.340;5.980;2022-08-19T04:58:39;6.90;;;3.40;;
64712;SDS011;51140;45.340;5.980;2022-08-19T05:01:13;6.40;;;3.42;;
64712;SDS011;51140;45.340;5.980;2022-08-19T05:03:42;7.93;;;3.80;;
64712;SDS011;51140;45.340;5.980;2022-08-19T05:06:08;8.23;;;4.15;;
64712;SDS011;51140;45.340;5.980;2022-08-19T05:08:37;8.60;;;3.88;;
64712;SDS011;51140;45.340;5.980;2022-08-19T05:13:39;6.95;;;4.22;;
64712;SDS011;51140;45.340;5.980;2022-08-19T05:16:06;7.55;;;4.03;;
64712;SDS011;51140;45.340;5.980;2022-08-19T05:18:31;6.72;;;3.50;;
64712;SDS011;51140;45.340;5.980;2022-08-19T05:21:16;7.90;;;3.55;;
64712;SDS011;51140;45.340;5.980;2022-08-19T05:24:02;7.68;;;3.70;;
64712;SDS011;51140;45.340;5.980;2022-08-19T05:26:28;7.30;;;3.55;;
64712;SDS011;51140;45.340;5.980;2022-08-19T05:28:54;7.35;;;3.83;;
64712;SDS011;51140;45.340;5.980;2022-08-19T05:31:20;8.07;;;4.10;;
64712;SDS011;51140;45.340;5.980;2022-08-19T05:33:46;7.32;;;3.92;;
64712;SDS011;51140;45.340;5.980;2022-08-19T05:36:12;8.45;;;3.25;;
64712;SDS011;51140;45.340;5.980;2022-08-19T05:38:39;6.25;;;2.53;;
64712;SDS011;51140;45.340;5.980;2022-08-19T05:41:11;5.05;;;2.45;;
64712;SDS011;51140;45.340;5.980;2022-08-19T05:43:38;6.10;;;2.72;;
64712;SDS011;51140;45.340;5.980;2022-08-19T05:46:04;5.93;;;2.40;;
64712;SDS011;51140;45.340;5.980;2022-08-19T05:48:31;5.90;;;2.50;;
64712;SDS011;51140;45.340;5.980;2022-08-19T05:50:57;4.75;;;2.17;;
64712;SDS011;51140;45.340;5.980;2022-08-19T05:53:24;5.72;;;2.30;;
64712;SDS011;51140;45.340;5.980;2022-08-19T05:55:50;7.88;;;3.70;;
64712;SDS011;51140;45.340;5.980;2022-08-19T05:58:15;12.70;;;4.03;;
64712;SDS011;51140;45.340;5.980;2022-08-19T06:00:42;7.32;;;4.30;;
64712;SDS011;51140;45.340;5.980;2022-08-19T06:03:09;9.15;;;4.70;;
64712;SDS011;51140;45.340;5.980;2022-08-19T06:05:35;7.97;;;4.63;;
64712;SDS011;51140;45.340;5.980;2022-08-19T06:08:00;7.45;;;4.38;;
64712;SDS011;51140;45.340;5.980;2022-08-19T06:10:26;9.52;;;4.50;;
64712;SDS011;51140;45.340;5.980;2022-08-19T06:12:51;7.47;;;4.18;;
64712;SDS011;51140;45.340;5.980;2022-08-19T06:15:17;9.10;;;4.13;;
64712;SDS011;51140;45.340;5.980;2022-08-19T06:17:43;8.63;;;4.03;;
64712;SDS011;51140;45.340;5.980;2022-08-19T06:20:10;7.60;;;4.07;;
64712;SDS011;51140;45.340;5.980;2022-08-19T06:22:39;8.32;;;3.90;;
64712;SDS011;51140;45.340;5.980;2022-08-19T06:25:05;7.47;;;3.60;;
64712;SDS011;51140;45.340;5.980;2022-08-19T06:27:31;7.22;;;3.95;;
64712;SDS011;51140;45.340;5.980;2022-08-19T06:29:58;6.90;;;3.90;;
64712;SDS011;51140;45.340;5.980;2022-08-19T06:32:23;7.78;;;4.60;;
64712;SDS011;51140;45.340;5.980;2022-08-19T06:34:49;9.15;;;4.03;;
64712;SDS011;51140;45.340;5.980;2022-08-19T06:37:14;9.75;;;3.90;;
64712;SDS011;51140;45.340;5.980;2022-08-19T06:39:41;7.65;;;3.92;;
64712;SDS011;51140;45.340;5.980;2022-08-19T06:42:08;6.22;;;3.33;;
64712;SDS011;51140;45.340;5.980;2022-08-19T06:44:38;7.53;;;4.13;;
64712;SDS011;51140;45.340;5.980;2022-08-19T06:47:06;7.85;;;4.13;;
64712;SDS011;51140;45.340;5.980;2022-08-19T06:49:33;8.80;;;4.65;;
64712;SDS011;51140;45.340;5.980;2022-08-19T06:52:00;10.55;;;4.95;;
64712;SDS011;51140;45.340;5.980;2022-08-19T06:54:26;9.55;;;4.90;;
64712;SDS011;51140;45.340;5.980;2022-08-19T06:56:54;8.15;;;4.00;;
64712;SDS011;51140;45.340;5.980;2022-08-19T06:59:21;8.35;;;4.20;;
64712;SDS011;51140;45.340;5.980;2022-08-19T07:01:52;7.43;;;3.90;;
64712;SDS011;51140;45.340;5.980;2022-08-19T07:04:21;7.70;;;3.97;;
64712;SDS011;51140;45.340;5.980;2022-08-19T07:06:48;7.93;;;3.92;;
64712;SDS011;51140;45.340;5.980;2022-08-19T07:09:17;7.15;;;3.88;;
64712;SDS011;51140;45.340;5.980;2022-08-19T07:11:46;7.03;;;3.33;;
64712;SDS011;51140;45.340;5.980;2022-08-19T07:14:14;6.70;;;3.00;;
64712;SDS011;51140;45.340;5.980;2022-08-19T07:16:43;7.97;;;3.30;;
64712;SDS011;51140;45.340;5.980;2022-08-19T07:19:10;6.60;;;3.83;;
64712;SDS011;51140;45.340;5.980;2022-08-19T07:21:37;6.80;;;3.53;;
64712;SDS011;51140;45.340;5.980;2022-08-19T07:24:02;7.65;;;3.60;;
64712;SDS011;51140;45.340;5.980;2022-08-19T07:26:30;7.65;;;3.78;;
64712;SDS011;51140;45.340;5.980;2022-08-19T07:28:58;6.93;;;3.25;;
64712;SDS011;51140;45.340;5.980;2022-08-19T07:31:26;7.75;;;3.35;;
64712;SDS011;51140;45.340;5.980;2022-08-19T07:33:53;5.95;;;3.10;;
64712;SDS011;51140;45.340;5.980;2022-08-19T07:36:22;6.82;;;3.22;;
64712;SDS011;51140;45.340;5.980;2022-08-19T07:38:50;5.68;;;2.85;;
64712;SDS011;51140;45.340;5.980;2022-08-19T07:41:18;7.65;;;2.88;;
64712;SDS011;51140;45.340;5.980;2022-08-19T07:43:48;7.38;;;3.33;;
64712;SDS011;51140;45.340;5.980;2022-08-19T07:46:14;7.38;;;3.22;;
64712;SDS011;51140;45.340;5.980;2022-08-19T07:48:41;5.63;;;3.08;;
64712;SDS011;51140;45.340;5.980;2022-08-19T07:51:09;8.50;;;3.40;;
64712;SDS011;51140;45.340;5.980;2022-08-19T07:53:36;7.85;;;3.60;;
64712;SDS011;51140;45.340;5.980;2022-08-19T07:56:03;6.95;;;2.90;;
64712;SDS011;51140;45.340;5.980;2022-08-19T07:58:30;5.78;;;2.80;;
64712;SDS011;51140;45.340;5.980;2022-08-19T08:00:58;9.25;;;3.20;;
64712;SDS011;51140;45.340;5.980;2022-08-19T08:03:24;6.03;;;3.00;;
64712;SDS011;51140;45.340;5.980;2022-08-19T08:06:11;5.82;;;3.03;;
64712;SDS011;51140;45.340;5.980;2022-08-19T08:08:57;5.07;;;2.47;;
64712;SDS011;51140;45.340;5.980;2022-08-19T08:11:43;6.20;;;3.00;;
64712;SDS011;51140;45.340;5.980;2022-08-19T08:14:14;5.75;;;2.85;;
64712;SDS011;51140;45.340;5.980;2022-08-19T08:16:41;5.40;;;2.80;;
64712;SDS011;51140;45.340;5.980;2022-08-19T08:19:08;5.68;;;2.95;;
64712;SDS011;51140;45.340;5.980;2022-08-19T08:21:35;6.53;;;2.55;;
64712;SDS011;51140;45.340;5.980;2022-08-19T08:24:01;7.28;;;3.42;;
64712;SDS011;51140;45.340;5.980;2022-08-19T08:26:26;6.18;;;3.13;;
64712;SDS011;51140;45.340;5.980;2022-08-19T08:28:52;5.45;;;3.08;;
64712;SDS011;51140;45.340;5.980;2022-08-19T08:31:18;5.97;;;2.85;;
64712;SDS011;51140;45.340;5.980;2022-08-19T08:33:44;5.07;;;2.90;;
64712;SDS011;51140;45.340;5.980;2022-08-19T08:36:11;6.25;;;3.05;;
64712;SDS011;51140;45.340;5.980;2022-08-19T08:38:38;5.78;;;3.40;;
64712;SDS011;51140;45.340;5.980;2022-08-19T08:41:09;8.57;;;3.47;;
64712;SDS011;51140;45.340;5.980;2022-08-19T08:43:38;6.57;;;3.25;;
64712;SDS011;51140;45.340;5.980;2022-08-19T08:49:02;7.35;;;3.45;;
64712;SDS011;51140;45.340;5.980;2022-08-19T08:51:42;7.15;;;3.28;;
64712;SDS011;51140;45.340;5.980;2022-08-19T08:54:13;7.53;;;2.92;;
64712;SDS011;51140;45.340;5.980;2022-08-19T08:56:42;9.00;;;3.10;;
64712;SDS011;51140;45.340;5.980;2022-08-19T08:59:14;6.93;;;3.35;;
64712;SDS011;51140;45.340;5.980;2022-08-19T09:01:45;7.60;;;3.00;;
64712;SDS011;51140;45.340;5.980;2022-08-19T09:04:11;6.63;;;2.95;;
64712;SDS011;51140;45.340;5.980;2022-08-19T09:09:45;6.10;;;2.95;;
64712;SDS011;51140;45.340;5.980;2022-08-19T09:12:35;6.53;;;3.25;;
64712;SDS011;51140;45.340;5.980;2022-08-19T09:15:11;9.57;;;3.78;;
64712;SDS011;51140;45.340;5.980;2022-08-19T09:17:38;7.65;;;3.72;;
64712;SDS011;51140;45.340;5.980;2022-08-19T09:22:32;6.63;;;3.20;;
64712;SDS011;51140;45.340;5.980;2022-08-19T09:24:58;6.70;;;3.83;;
64712;SDS011;51140;45.340;5.980;2022-08-19T09:27:25;6.78;;;3.50;;
64712;SDS011;51140;45.340;5.980;2022-08-19T09:29:51;8.30;;;3.33;;
64712;SDS011;51140;45.340;5.980;2022-08-19T09:32:18;8.95;;;3.88;;
64712;SDS011;51140;45.340;5.980;2022-08-19T09:34:44;8.02;;;3.53;;
64712;SDS011;51140;45.340;5.980;2022-08-19T09:37:10;7.72;;;3.28;;
64712;SDS011;51140;45.340;5.980;2022-08-19T09:39:38;6.78;;;3.70;;
64712;SDS011;51140;45.340;5.980;2022-08-19T09:42:06;10.43;;;3.78;;
64712;SDS011;51140;45.340;5.980;2022-08-19T09:44:38;5.65;;;3.00;;
64712;SDS011;51140;45.340;5.980;2022-08-19T09:47:04;6.95;;;3.35;;
64712;SDS011;51140;45.340;5.980;2022-08-19T09:49:29;7.38;;;3.30;;
64712;SDS011;51140;45.340;5.980;2022-08-19T09:51:56;5.82;;;3.20;;
64712;SDS011;51140;45.340;5.980;2022-08-19T09:54:22;6.03;;;3.22;;
64712;SDS011;51140;45.340;5.980;2022-08-19T09:56:48;8.98;;;3.10;;
64712;SDS011;51140;45.340;5.980;2022-08-19T09:59:15;6.45;;;3.28;;
64712;SDS011;51140;45.340;5.980;2022-08-19T10:04:53;5.60;;;3.05;;
64712;SDS011;51140;45.340;5.980;2022-08-19T10:07:37;6.85;;;3.10;;
64712;SDS011;51140;45.340;5.980;2022-08-19T10:10:04;6.20;;;3.70;;
64712;SDS011;51140;45.340;5.980;2022-08-19T10:12:31;6.93;;;3.20;;
64712;SDS011;51140;45.340;5.980;2022-08-19T10:14:58;7.15;;;3.10;;
64712;SDS011;51140;45.340;5.980;2022-08-19T10:17:24;6.85;;;3.58;;
64712;SDS011;51140;45.340;5.980;2022-08-19T10:19:50;5.82;;;3.40;;
64712;SDS011;51140;45.340;5.980;2022-08-19T10:22:16;6.70;;;3.63;;
64712;SDS011;51140;45.340;5.980;2022-08-19T10:24:42;6.28;;;3.22;;
64712;SDS011;51140;45.340;5.980;2022-08-19T10:27:08;6.30;;;3.30;;
64712;SDS011;51140;45.340;5.980;2022-08-19T10:29:34;8.20;;;3.65;;
64712;SDS011;51140;45.340;5.980;2022-08-19T10:32:00;6.55;;;3.38;;
64712;SDS011;51140;45.340;5.980;2022-08-19T10:34:28;7.63;;;3.33;;
64712;SDS011;51140;45.340;5.980;2022-08-19T10:36:55;5.65;;;2.97;;
64712;SDS011;51140;45.340;5.980;2022-08-19T10:39:22;5.65;;;3.13;;
64712;SDS011;51140;45.340;5.980;2022-08-19T10:41:47;5.47;;;2.92;;
64712;SDS011;51140;45.340;5.980;2022-08-19T10:44:13;6.00;;;3.03;;
64712;SDS011;51140;45.340;5.980;2022-08-19T10:46:41;6.13;;;2.90;;
64712;SDS011;51140;45.340;5.980;2022-08-19T10:49:12;5.18;;;2.70;;
64712;SDS011;51140;45.340;5.980;2022-08-19T10:51:41;7.07;;;3.20;;
64712;SDS011;51140;45.340;5.980;2022-08-19T10:54:25;5.43;;;3.05;;
64712;SDS011;51140;45.340;5.980;2022-08-19T10:57:14;6.65;;;3.50;;
64712;SDS011;51140;45.340;5.980;2022-08-19T10:59:40;6.38;;;3.15;;
64712;SDS011;51140;45.340;5.980;2022-08-19T11:02:07;6.55;;;3.08;;
64712;SDS011;51140;45.340;5.980;2022-08-19T11:04:36;7.15;;;3.40;;
64712;SDS011;51140;45.340;5.980;2022-08-19T11:07:02;5.93;;;3.05;;
64712;SDS011;51140;45.340;5.980;2022-08-19T11:09:29;5.35;;;2.55;;
64712;SDS011;51140;45.340;5.980;2022-08-19T11:11:55;7.50;;;3.47;;
64712;SDS011;51140;45.340;5.980;2022-08-19T11:14:21;6.88;;;3.47;;
64712;SDS011;51140;45.340;5.980;2022-08-19T11:16:50;6.30;;;3.63;;
64712;SDS011;51140;45.340;5.980;2022-08-19T11:19:18;7.60;;;3.25;;
64712;SDS011;51140;45.340;5.980;2022-08-19T11:21:45;5.80;;;3.25;;
64712;SDS011;51140;45.340;5.980;2022-08-19T11:24:14;6.57;;;3.55;;
64712;SDS011;51140;45.340;5.980;2022-08-19T11:26:42;7.95;;;3.50;;
64712;SDS011;51140;45.340;5.980;2022-08-19T11:29:10;6.53;;;3.50;;
64712;SDS011;51140;45.340;5.980;2022-08-19T11:31:38;6.07;;;3.50;;
64712;SDS011;51140;45.340;5.980;2022-08-19T11:34:05;6.00;;;3.75;;
64712;SDS011;51140;45.340;5.980;2022-08-19T11:36:33;5.88;;;3.60;;
64712;SDS011;51140;45.340;5.980;2022-08-19T11:39:02;12.30;;;4.25;;
64712;SDS011;51140;45.340;5.980;2022-08-19T11:41:29;7.78;;;3.97;;
64712;SDS011;51140;45.340;5.980;2022-08-19T11:43:54;6.38;;;3.83;;
64712;SDS011;51140;45.340;5.980;2022-08-19T11:46:21;6.93;;;3.88;;
64712;SDS011;51140;45.340;5.980;2022-08-19T11:48:47;6.50;;;3.88;;
64712;SDS011;51140;45.340;5.980;2022-08-19T11:51:15;8.77;;;4.20;;
64712;SDS011;51140;45.340;5.980;2022-08-19T11:53:43;9.32;;;4.20;;
64712;SDS011;51140;45.340;5.980;2022-08-19T11:56:09;6.47;;;3.97;;
64712;SDS011;51140;45.340;5.980;2022-08-19T11:58:35;6.90;;;4.22;;
64712;SDS011;51140;45.340;5.980;2022-08-19T12:01:04;7.72;;;4.38;;
64712;SDS011;51140;45.340;5.980;2022-08-19T12:03:32;10.00;;;4.63;;
64712;SDS011;51140;45.340;5.980;2022-08-19T12:05:57;7.75;;;4.55;;
64712;SDS011;51140;45.340;5.980;2022-08-19T12:08:22;7.15;;;4.28;;
64712;SDS011;51140;45.340;5.980;2022-08-19T12:10:48;8.45;;;4.32;;
64712;SDS011;51140;45.340;5.980;2022-08-19T12:13:14;7.20;;;4.22;;
64712;SDS011;51140;45.340;5.980;2022-08-19T12:15:43;7.28;;;4.40;;
64712;SDS011;51140;45.340;5.980;2022-08-19T12:18:10;6.85;;;4.22;;
64712;SDS011;51140;45.340;5.980;2022-08-19T12:20:38;7.32;;;4.57;;
64712;SDS011;51140;45.340;5.980;2022-08-19T12:23:06;7.75;;;4.47;;
64712;SDS011;51140;45.340;5.980;2022-08-19T12:25:34;9.85;;;4.40;;
64712;SDS011;51140;45.340;5.980;2022-08-19T12:28:00;6.88;;;4.68;;
64712;SDS011;51140;45.340;5.980;2022-08-19T12:30:26;7.55;;;4.28;;
64712;SDS011;51140;45.340;5.980;2022-08-19T12:32:52;7.30;;;4.00;;
64712;SDS011;51140;45.340;5.980;2022-08-19T12:35:18;8.40;;;4.72;;
64712;SDS011;51140;45.340;5.980;2022-08-19T12:37:45;7.65;;;4.30;;
64712;SDS011;51140;45.340;5.980;2022-08-19T12:40:12;6.68;;;4.03;;
64712;SDS011;51140;45.340;5.980;2022-08-19T12:42:39;9.13;;;4.53;;
64712;SDS011;51140;45.340;5.980;2022-08-19T12:45:08;7.95;;;4.38;;
64712;SDS011;51140;45.340;5.980;2022-08-19T12:47:35;6.88;;;4.32;;
64712;SDS011;51140;45.340;5.980;2022-08-19T12:50:01;7.60;;;4.32;;
64712;SDS011;51140;45.340;5.980;2022-08-19T12:52:26;8.70;;;4.22;;
64712;SDS011;51140;45.340;5.980;2022-08-19T12:54:53;7.85;;;3.72;;
64712;SDS011;51140;45.340;5.980;2022-08-19T12:57:21;7.10;;;4.18;;
64712;SDS011;51140;45.340;5.980;2022-08-19T12:59:48;6.70;;;4.15;;
64712;SDS011;51140;45.340;5.980;2022-08-19T13:02:18;6.47;;;4.05;;
64712;SDS011;51140;45.340;5.980;2022-08-19T13:04:44;10.73;;;4.43;;
64712;SDS011;51140;45.340;5.980;2022-08-19T13:07:10;7.45;;;4.72;;
64712;SDS011;51140;45.340;5.980;2022-08-19T13:09:36;7.65;;;3.80;;
64712;SDS011;51140;45.340;5.980;2022-08-19T13:12:02;8.13;;;4.07;;
64712;SDS011;51140;45.340;5.980;2022-08-19T13:14:32;6.40;;;3.90;;
64712;SDS011;51140;45.340;5.980;2022-08-19T13:16:58;6.70;;;3.97;;
64712;SDS011;51140;45.340;5.980;2022-08-19T13:19:24;6.78;;;3.97;;
64712;SDS011;51140;45.340;5.980;2022-08-19T13:21:49;6.75;;;4.22;;
64712;SDS011;51140;45.340;5.980;2022-08-19T13:24:15;7.82;;;4.53;;
64712;SDS011;51140;45.340;5.980;2022-08-19T13:26:41;10.73;;;4.53;;
64712;SDS011;51140;45.340;5.980;2022-08-19T13:29:07;6.47;;;4.05;;
64712;SDS011;51140;45.340;5.980;2022-08-19T13:31:51;8.23;;;4.68;;
64712;SDS011;51140;45.340;5.980;2022-08-19T13:34:35;7.22;;;4.20;;
64712;SDS011;51140;45.340;5.980;2022-08-19T13:37:02;10.57;;;4.68;;
64712;SDS011;51140;45.340;5.980;2022-08-19T13:39:32;7.90;;;4.53;;
64712;SDS011;51140;45.340;5.980;2022-08-19T13:41:58;8.60;;;4.90;;
64712;SDS011;51140;45.340;5.980;2022-08-19T13:44:25;6.70;;;4.25;;
64712;SDS011;51140;45.340;5.980;2022-08-19T13:46:54;8.20;;;4.40;;
64712;SDS011;51140;45.340;5.980;2022-08-19T13:49:27;7.15;;;4.60;;
64712;SDS011;51140;45.340;5.980;2022-08-19T13:51:54;7.72;;;4.63;;
64712;SDS011;51140;45.340;5.980;2022-08-19T13:54:19;8.27;;;4.20;;
64712;SDS011;51140;45.340;5.980;2022-08-19T13:56:44;8.18;;;4.95;;
64712;SDS011;51140;45.340;5.980;2022-08-19T13:59:10;10.35;;;4.70;;
64712;SDS011;51140;45.340;5.980;2022-08-19T14:01:37;8.05;;;4.28;;
64712;SDS011;51140;45.340;5.980;2022-08-19T14:04:03;6.97;;;4.13;;
64712;SDS011;51140;45.340;5.980;2022-08-19T14:06:30;7.97;;;4.43;;
64712;SDS011;51140;45.340;5.980;2022-08-19T14:08:55;7.13;;;4.43;;
64712;SDS011;51140;45.340;5.980;2022-08-19T14:11:21;10.00;;;4.60;;
64712;SDS011;51140;45.340;5.980;2022-08-19T14:13:47;7.45;;;4.47;;
64712;SDS011;51140;45.340;5.980;2022-08-19T14:16:14;8.82;;;4.43;;
64712;SDS011;51140;45.340;5.980;2022-08-19T14:18:39;6.38;;;4.20;;
64712;SDS011;51140;45.340;5.980;2022-08-19T14:21:06;8.10;;;3.90;;
64712;SDS011;51140;45.340;5.980;2022-08-19T14:23:32;7.75;;;4.20;;
64712;SDS011;51140;45.340;5.980;2022-08-19T14:26:09;7.88;;;4.18;;
64712;SDS011;51140;45.340;5.980;2022-08-19T14:28:38;9.00;;;4.20;;
64712;SDS011;51140;45.340;5.980;2022-08-19T14:31:06;7.63;;;4.22;;
64712;SDS011;51140;45.340;5.980;2022-08-19T14:33:33;8.85;;;4.50;;
64712;SDS011;51140;45.340;5.980;2022-08-19T14:35:58;7.80;;;4.35;;
64712;SDS011;51140;45.340;5.980;2022-08-19T14:38:25;7.88;;;4.35;;
64712;SDS011;51140;45.340;5.980;2022-08-19T14:40:50;9.32;;;5.15;;
64712;SDS011;51140;45.340;5.980;2022-08-19T14:43:17;10.23;;;4.85;;
64712;SDS011;51140;45.340;5.980;2022-08-19T14:45:42;8.05;;;5.20;;
64712;SDS011;51140;45.340;5.980;2022-08-19T14:48:08;6.63;;;4.25;;
64712;SDS011;51140;45.340;5.980;2022-08-19T14:50:34;8.82;;;4.60;;
64712;SDS011;51140;45.340;5.980;2022-08-19T14:53:01;8.30;;;4.80;;
64712;SDS011;51140;45.340;5.980;2022-08-19T14:55:34;7.95;;;5.35;;
64712;SDS011;51140;45.340;5.980;2022-08-19T14:58:00;8.40;;;5.10;;
64712;SDS011;51140;45.340;5.980;2022-08-19T15:00:26;10.27;;;5.10;;
64712;SDS011;51140;45.340;5.980;2022-08-19T15:02:52;9.93;;;4.63;;
64712;SDS011;51140;45.340;5.980;2022-08-19T15:05:19;7.43;;;4.70;;